Current Conditions
Overcast
Conditions



Pressure
1019.32 (hPa) - 30.1 (inHG)
Visibility

9.9 (miles) - 16.0 (km)
   Temperature
32  °F
Temperature
18  °F
Dewpoint
55  %
 Humidity
   Wind Speed
15  mph
13  kts
24  km/h
6.7  m/s
   Wind Direction
N
45°
E
90°
135°
S
180°
225°
W
270°
315°
 240°

West South
West
   Airport Data
KYIP
Willow Run Airport
Metar :KYIP 191453Z 24013KT 10SM OVC090 00/M08 A3010 RMK AO2 SLP197 T00001078 51017
Tue 19th January 09:53 am
   Raw Metar Info
Raw METAR is the most common format in the world for the transmission of observational weather data. It is highly standardized through the International Civil Aviation Organization (ICAO), which allows it to be understood throughout most of the world.
   API Info
Data Provided by
https://www.checkwx.com/weather/KYIP

Aviation Weather providing METAR, TAF, AIRMET, SIGMET and OUTLOOK Weather Reports
   © Info
CSS/SVG/PHP scripts were developed by weather34.com for use in the weather34 template © 2015-2021

Guide Info provided by Metar-Wikipedia